Time;durP1;ratioP1;P1;durP2;ratioP2;P2;SDS_P1;SDS_P2;PMS_P1;PMS_P2;Temp;Humidity;BMP_temperature;BMP_pressure;BME280_temperature;BME280_humidity;BME280_pressure;Samples;Min_cycle;Max_cycle;Signal;HPM_P1;HPM_P2
2024/02/26 00:02:06;;;;;;;226.55;66.03;;;;;;;;;;4973418;28;20587;-44
2024/02/26 00:04:32;;;;;;;226.18;66.78;;;;;;;;;;4974291;28;20705;-44
2024/02/26 00:07:01;;;;;;;226.57;67.43;;;;;;;;;;4973871;28;20232;-43
2024/02/26 00:09:27;;;;;;;228.90;68.43;;;;;;;;;;4973289;28;20181;-44
2024/02/26 00:11:54;;;;;;;223.97;66.00;;;;;;;;;;4973500;28;20613;-43
2024/02/26 00:14:20;;;;;;;226.73;66.63;;;;;;;;;;4979612;28;20440;-43
2024/02/26 00:16:46;;;;;;;226.77;68.57;;;;;;;;;;4974913;28;20235;-44
2024/02/26 00:19:12;;;;;;;226.70;67.03;;;;;;;;;;4973557;28;20422;-43
2024/02/26 00:21:44;;;;;;;224.83;65.90;;;;;;;;;;4973729;28;20491;-43
2024/02/26 00:24:10;;;;;;;224.70;65.35;;;;;;;;;;4973537;28;20452;-44
2024/02/26 00:26:36;;;;;;;226.43;67.17;;;;;;;;;;4973394;28;20216;-43
2024/02/26 00:29:02;;;;;;;226.67;66.27;;;;;;;;;;4973849;28;20520;-44
2024/02/26 00:31:28;;;;;;;225.97;65.93;;;;;;;;;;4973440;28;20438;-43
2024/02/26 00:33:54;;;;;;;224.87;65.03;;;;;;;;;;4973672;28;20417;-43
2024/02/26 00:36:20;;;;;;;226.30;66.03;;;;;;;;;;4972998;28;20421;-43
2024/02/26 00:38:50;;;;;;;228.37;68.43;;;;;;;;;;4973119;28;20774;-44
2024/02/26 00:41:16;;;;;;;226.48;67.97;;;;;;;;;;4972430;28;20826;-43
2024/02/26 00:43:42;;;;;;;227.43;67.55;;;;;;;;;;4973084;28;20182;-43
2024/02/26 00:46:08;;;;;;;226.37;66.30;;;;;;;;;;4972871;28;20532;-44
2024/02/26 00:48:34;;;;;;;227.77;68.30;;;;;;;;;;4972720;28;20446;-44
2024/02/26 00:51:00;;;;;;;226.40;68.90;;;;;;;;;;4973196;28;20694;-44
2024/02/26 00:53:26;;;;;;;227.10;66.60;;;;;;;;;;4973252;28;20769;-44
2024/02/26 00:55:52;;;;;;;226.73;68.00;;;;;;;;;;4973051;28;20822;-43
2024/02/26 00:58:18;;;;;;;224.90;66.20;;;;;;;;;;4973087;28;20185;-44
2024/02/26 01:00:44;;;;;;;228.02;68.85;;;;;;;;;;4973194;28;20209;-44
2024/02/26 01:03:10;;;;;;;222.77;63.53;;;;;;;;;;4972906;28;20191;-43
2024/02/26 01:05:37;;;;;;;226.13;67.20;;;;;;;;;;4973015;28;20933;-44
2024/02/26 01:08:04;;;;;;;224.38;65.45;;;;;;;;;;4973171;28;20282;-44
2024/02/26 01:10:29;;;;;;;226.15;66.30;;;;;;;;;;4972748;28;20206;-44
2024/02/26 01:12:56;;;;;;;225.05;66.00;;;;;;;;;;4972700;28;20176;-43
2024/02/26 01:15:23;;;;;;;224.57;65.10;;;;;;;;;;4972751;28;20180;-44
2024/02/26 01:17:50;;;;;;;226.15;66.50;;;;;;;;;;4974357;28;20460;-43
2024/02/26 01:20:16;;;;;;;226.52;67.20;;;;;;;;;;4991221;28;20199;-44
2024/02/26 01:22:43;;;;;;;228.40;69.25;;;;;;;;;;4989920;28;20253;-43
2024/02/26 01:25:12;;;;;;;233.52;74.10;;;;;;;;;;4984532;28;20668;-44
2024/02/26 01:27:38;;;;;;;225.38;66.85;;;;;;;;;;4991026;28;20205;-43
2024/02/26 01:30:04;;;;;;;226.13;67.57;;;;;;;;;;4983191;28;20246;-43
2024/02/26 01:32:30;;;;;;;225.02;67.18;;;;;;;;;;4991242;28;20420;-44
2024/02/26 01:34:56;;;;;;;223.88;65.80;;;;;;;;;;4991186;28;20184;-44
2024/02/26 01:37:22;;;;;;;228.07;68.85;;;;;;;;;;4991668;28;20182;-43
2024/02/26 01:39:48;;;;;;;224.60;66.40;;;;;;;;;;4983144;28;20228;-43
2024/02/26 01:42:14;;;;;;;227.40;68.83;;;;;;;;;;4991408;28;20482;-43
2024/02/26 01:44:40;;;;;;;226.98;67.35;;;;;;;;;;4991146;28;20415;-44
2024/02/26 01:47:06;;;;;;;225.37;66.37;;;;;;;;;;4986379;28;20668;-43
2024/02/26 01:49:33;;;;;;;225.82;66.63;;;;;;;;;;4987673;28;20409;-43
2024/02/26 01:51:59;;;;;;;228.35;68.43;;;;;;;;;;4987639;28;20182;-43
2024/02/26 01:54:25;;;;;;;226.25;67.53;;;;;;;;;;4986756;28;20257;-43
2024/02/26 01:56:51;;;;;;;225.27;66.35;;;;;;;;;;4986620;28;20169;-43
2024/02/26 01:59:17;;;;;;;225.75;67.47;;;;;;;;;;4985462;28;20177;-44
2024/02/26 02:01:46;;;;;;;228.13;69.00;;;;;;;;;;4988584;28;20216;-44
2024/02/26 02:04:12;;;;;;;224.63;66.65;;;;;;;;;;4990613;28;20176;-43
2024/02/26 02:06:39;;;;;;;233.55;72.47;;;;;;;;;;4990141;28;20205;-43
2024/02/26 02:09:07;;;;;;;227.07;68.30;;;;;;;;;;4989628;28;20452;-43
2024/02/26 02:11:33;;;;;;;227.45;69.28;;;;;;;;;;4991177;28;20196;-43
2024/02/26 02:13:59;;;;;;;227.48;68.15;;;;;;;;;;4991039;28;20188;-43
2024/02/26 02:16:26;;;;;;;226.55;66.78;;;;;;;;;;4990058;28;20173;-44
2024/02/26 02:18:52;;;;;;;226.98;68.85;;;;;;;;;;4986323;28;20636;-43
2024/02/26 02:21:18;;;;;;;227.23;68.97;;;;;;;;;;4994515;28;20212;-43
2024/02/26 02:23:46;;;;;;;229.57;70.57;;;;;;;;;;4994442;28;20511;-43
2024/02/26 02:26:12;;;;;;;225.98;68.38;;;;;;;;;;4986097;28;20423;-43
2024/02/26 02:28:39;;;;;;;225.02;68.22;;;;;;;;;;4994097;28;20214;-44
2024/02/26 02:31:06;;;;;;;224.73;66.28;;;;;;;;;;4986162;28;20275;-43
2024/02/26 02:33:32;;;;;;;227.05;69.07;;;;;;;;;;4993978;28;20176;-44
2024/02/26 02:35:58;;;;;;;226.32;68.70;;;;;;;;;;4994196;28;20582;-43
2024/02/26 02:38:25;;;;;;;226.63;68.40;;;;;;;;;;4994067;28;20174;-43
2024/02/26 02:40:52;;;;;;;227.27;70.07;;;;;;;;;;5006605;23;20228;-45
2024/02/26 02:43:18;;;;;;;223.15;66.18;;;;;;;;;;4993772;28;20209;-45
2024/02/26 02:45:44;;;;;;;225.95;68.05;;;;;;;;;;4993796;28;20170;-46
2024/02/26 02:48:11;;;;;;;223.67;65.77;;;;;;;;;;4993814;28;20227;-46
2024/02/26 02:50:37;;;;;;;226.07;67.63;;;;;;;;;;4993864;28;20925;-45
2024/02/26 02:53:03;;;;;;;226.30;68.40;;;;;;;;;;4993828;28;20182;-45
2024/02/26 02:55:29;;;;;;;223.40;66.38;;;;;;;;;;4989758;28;20437;-45
2024/02/26 02:57:55;;;;;;;224.77;66.20;;;;;;;;;;4993330;28;20626;-46
2024/02/26 03:00:24;;;;;;;225.97;68.43;;;;;;;;;;4993722;28;20420;-46
2024/02/26 03:02:50;;;;;;;223.38;67.28;;;;;;;;;;4993609;28;20414;-46
2024/02/26 03:05:16;;;;;;;228.23;70.45;;;;;;;;;;4993628;28;20302;-45
2024/02/26 03:07:42;;;;;;;226.00;68.28;;;;;;;;;;4993483;28;20199;-46
2024/02/26 03:10:08;;;;;;;226.10;69.95;;;;;;;;;;4993459;28;20731;-46
2024/02/26 03:12:35;;;;;;;225.30;68.40;;;;;;;;;;4993607;28;20214;-46
2024/02/26 03:15:04;;;;;;;224.45;66.63;;;;;;;;;;4993175;28;20182;-46
2024/02/26 03:17:30;;;;;;;225.50;66.78;;;;;;;;;;4993312;28;20202;-46
2024/02/26 03:19:56;;;;;;;223.35;66.45;;;;;;;;;;4993457;28;20186;-46
2024/02/26 03:22:22;;;;;;;221.65;64.72;;;;;;;;;;4993272;28;20189;-46
2024/02/26 03:24:48;;;;;;;224.40;67.05;;;;;;;;;;4993654;28;20267;-45
2024/02/26 03:27:14;;;;;;;223.45;64.85;;;;;;;;;;4993059;28;20188;-46
2024/02/26 03:29:41;;;;;;;223.80;65.80;;;;;;;;;;4993179;28;20256;-46
2024/02/26 03:32:07;;;;;;;221.73;64.78;;;;;;;;;;4993037;28;20263;-46
2024/02/26 03:34:39;;;;;;;223.25;64.57;;;;;;;;;;4993114;28;20204;-46
2024/02/26 03:37:05;;;;;;;222.10;63.08;;;;;;;;;;4992777;28;20177;-45
2024/02/26 03:39:31;;;;;;;220.00;61.88;;;;;;;;;;4992996;28;20188;-46
2024/02/26 03:41:57;;;;;;;222.45;62.05;;;;;;;;;;4992910;28;20208;-45
2024/02/26 03:44:23;;;;;;;220.23;61.50;;;;;;;;;;4992887;28;20184;-45
2024/02/26 03:46:49;;;;;;;222.77;62.97;;;;;;;;;;4992539;28;20416;-45
2024/02/26 03:49:15;;;;;;;222.00;62.28;;;;;;;;;;4992924;28;20455;-46
2024/02/26 03:51:41;;;;;;;222.00;62.97;;;;;;;;;;4992732;28;20201;-46
2024/02/26 03:54:07;;;;;;;220.87;61.90;;;;;;;;;;4992983;28;20172;-46
2024/02/26 03:56:33;;;;;;;219.03;60.97;;;;;;;;;;4988026;28;20773;-45
2024/02/26 03:59:01;;;;;;;218.75;60.22;;;;;;;;;;4992584;28;20470;-45
2024/02/26 04:01:28;;;;;;;220.10;61.30;;;;;;;;;;4992740;28;20205;-45
2024/02/26 04:03:54;;;;;;;220.98;61.92;;;;;;;;;;4992473;28;20211;-46
2024/02/26 04:06:20;;;;;;;221.37;62.37;;;;;;;;;;4992117;28;20277;-45
2024/02/26 04:08:47;;;;;;;220.77;61.35;;;;;;;;;;4992277;28;20549;-46
2024/02/26 04:11:13;;;;;;;219.40;61.05;;;;;;;;;;4992662;28;20606;-46
2024/02/26 04:13:39;;;;;;;219.30;59.20;;;;;;;;;;4992425;28;20648;-46
2024/02/26 04:16:05;;;;;;;218.07;59.37;;;;;;;;;;4992110;28;20208;-45
2024/02/26 04:18:32;;;;;;;218.98;59.97;;;;;;;;;;4992106;28;20462;-46
2024/02/26 04:20:58;;;;;;;219.18;59.95;;;;;;;;;;4992548;28;20291;-45
2024/02/26 04:23:23;;;;;;;219.68;59.55;;;;;;;;;;4992133;28;20256;-46
2024/02/26 04:25:53;;;;;;;218.43;59.60;;;;;;;;;;4992129;28;20523;-46
2024/02/26 04:28:20;;;;;;;218.32;58.60;;;;;;;;;;4991921;28;20990;-46
2024/02/26 04:30:46;;;;;;;218.73;57.72;;;;;;;;;;4991562;28;20197;-45
2024/02/26 04:33:12;;;;;;;217.43;58.37;;;;;;;;;;4992074;28;20180;-45
2024/02/26 04:35:38;;;;;;;217.97;58.97;;;;;;;;;;4992023;28;20420;-45
2024/02/26 04:38:04;;;;;;;217.57;58.00;;;;;;;;;;4992301;28;20420;-46
2024/02/26 04:40:30;;;;;;;217.85;57.25;;;;;;;;;;4991746;28;20432;-46
2024/02/26 04:42:57;;;;;;;217.17;57.00;;;;;;;;;;4991958;28;20308;-45
2024/02/26 04:45:23;;;;;;;216.43;57.15;;;;;;;;;;4991521;28;20424;-45
2024/02/26 04:47:49;;;;;;;215.95;56.40;;;;;;;;;;4991650;28;20209;-46
2024/02/26 04:50:15;;;;;;;219.03;59.20;;;;;;;;;;4991574;28;20187;-46
2024/02/26 04:52:41;;;;;;;217.98;57.00;;;;;;;;;;4991969;28;20416;-45
2024/02/26 04:55:07;;;;;;;222.88;62.58;;;;;;;;;;4990916;28;20606;-45
2024/02/26 04:57:33;;;;;;;216.93;56.30;;;;;;;;;;4988413;28;20180;-47
2024/02/26 04:59:59;;;;;;;219.20;57.92;;;;;;;;;;4991664;28;20272;-46
2024/02/26 05:02:26;;;;;;;218.63;58.47;;;;;;;;;;4991484;28;20627;-45
2024/02/26 05:04:52;;;;;;;220.77;58.85;;;;;;;;;;4991400;28;20404;-45
2024/02/26 05:07:18;;;;;;;218.38;58.15;;;;;;;;;;4991191;28;20256;-46
2024/02/26 05:09:44;;;;;;;215.87;56.60;;;;;;;;;;4991470;28;20177;-45
2024/02/26 05:12:10;;;;;;;218.13;57.85;;;;;;;;;;4991568;28;20436;-46
2024/02/26 05:14:36;;;;;;;218.25;57.22;;;;;;;;;;4991338;28;20655;-46
2024/02/26 05:17:02;;;;;;;218.37;58.63;;;;;;;;;;4991302;28;20169;-47
2024/02/26 05:19:28;;;;;;;218.23;57.70;;;;;;;;;;4991495;28;20411;-45
2024/02/26 05:21:54;;;;;;;217.20;56.43;;;;;;;;;;4991336;28;20963;-46
2024/02/26 05:24:22;;;;;;;216.93;57.77;;;;;;;;;;4991399;28;20923;-45
2024/02/26 05:26:48;;;;;;;219.00;57.80;;;;;;;;;;4991040;28;20818;-46
2024/02/26 05:29:14;;;;;;;215.87;55.57;;;;;;;;;;4991215;28;20201;-46
2024/02/26 05:31:42;;;;;;;219.88;58.88;;;;;;;;;;4991144;28;20494;-46
2024/02/26 05:34:08;;;;;;;217.85;57.15;;;;;;;;;;4991606;28;20169;-46
2024/02/26 05:36:34;;;;;;;220.80;58.67;;;;;;;;;;4990841;28;20185;-46
2024/02/26 05:39:00;;;;;;;214.73;54.50;;;;;;;;;;4991469;28;20431;-45
2024/02/26 05:41:26;;;;;;;215.98;55.38;;;;;;;;;;4991192;28;20459;-45
2024/02/26 05:43:53;;;;;;;218.50;57.38;;;;;;;;;;4994956;28;20176;-45
2024/02/26 05:46:19;;;;;;;219.38;57.72;;;;;;;;;;4994759;28;20185;-45
2024/02/26 05:48:47;;;;;;;214.23;54.42;;;;;;;;;;4994936;28;20292;-46
2024/02/26 05:51:13;;;;;;;217.27;56.63;;;;;;;;;;4995041;28;20209;-45
2024/02/26 05:53:39;;;;;;;216.57;55.50;;;;;;;;;;4994987;28;20180;-46
2024/02/26 05:56:07;;;;;;;215.63;55.63;;;;;;;;;;4990337;28;20435;-45
2024/02/26 05:58:33;;;;;;;215.77;56.70;;;;;;;;;;4994893;28;20455;-46
2024/02/26 06:01:00;;;;;;;217.27;56.63;;;;;;;;;;4994737;28;20231;-46
2024/02/26 06:03:26;;;;;;;217.52;56.83;;;;;;;;;;4994261;28;20469;-45
2024/02/26 06:05:58;;;;;;;220.60;58.13;;;;;;;;;;4993823;28;20176;-45
2024/02/26 06:08:23;;;;;;;217.77;56.20;;;;;;;;;;4982816;28;20196;-46
2024/02/26 06:10:51;;;;;;;216.70;55.63;;;;;;;;;;4990250;28;20193;-45
2024/02/26 06:13:16;;;;;;;217.38;56.40;;;;;;;;;;4994034;28;20915;-46
2024/02/26 06:15:42;;;;;;;219.00;57.17;;;;;;;;;;4992001;28;20177;-46
2024/02/26 06:18:10;;;;;;;216.47;55.90;;;;;;;;;;4994497;28;20439;-46
2024/02/26 06:20:36;;;;;;;216.60;55.90;;;;;;;;;;4994272;28;20820;-45
2024/02/26 06:23:02;;;;;;;216.35;56.63;;;;;;;;;;4994656;28;20643;-46
2024/02/26 06:25:28;;;;;;;217.13;56.60;;;;;;;;;;4993562;28;20259;-46
2024/02/26 06:27:55;;;;;;;219.77;58.47;;;;;;;;;;4993386;28;20338;-46
2024/02/26 06:30:21;;;;;;;219.50;57.22;;;;;;;;;;4994165;28;20448;-46
2024/02/26 06:32:47;;;;;;;216.93;56.20;;;;;;;;;;4994157;28;20268;-45
2024/02/26 06:35:13;;;;;;;221.77;58.70;;;;;;;;;;4993911;28;20311;-46
2024/02/26 06:37:39;;;;;;;217.10;55.70;;;;;;;;;;4993879;28;20419;-46
2024/02/26 06:40:06;;;;;;;218.00;57.17;;;;;;;;;;4994112;28;20845;-45
2024/02/26 06:42:32;;;;;;;220.90;58.53;;;;;;;;;;4993589;28;20456;-45
2024/02/26 06:44:58;;;;;;;222.05;59.58;;;;;;;;;;4993887;28;20180;-47
2024/02/26 06:47:25;;;;;;;219.52;58.80;;;;;;;;;;4993906;28;20185;-46
2024/02/26 06:49:51;;;;;;;219.30;58.35;;;;;;;;;;4993935;28;20173;-45
2024/02/26 06:52:17;;;;;;;217.03;56.60;;;;;;;;;;4993814;28;20202;-46
2024/02/26 06:54:44;;;;;;;220.15;58.65;;;;;;;;;;4993417;28;20918;-46
2024/02/26 06:57:10;;;;;;;218.52;57.72;;;;;;;;;;4988978;28;20581;-46
2024/02/26 06:59:36;;;;;;;217.70;56.03;;;;;;;;;;4993913;28;20177;-46
2024/02/26 07:02:02;;;;;;;218.27;57.23;;;;;;;;;;4992552;28;20204;-45
2024/02/26 07:04:28;;;;;;;218.57;56.13;;;;;;;;;;4989725;28;20413;-46
2024/02/26 07:06:54;;;;;;;217.20;56.93;;;;;;;;;;4993437;28;20173;-46
2024/02/26 07:09:20;;;;;;;216.57;55.40;;;;;;;;;;4993801;28;20467;-46
2024/02/26 07:11:46;;;;;;;216.73;56.70;;;;;;;;;;4993373;28;20432;-46
2024/02/26 07:14:12;;;;;;;218.15;56.75;;;;;;;;;;4993484;28;20451;-46
2024/02/26 07:16:39;;;;;;;217.98;56.80;;;;;;;;;;4993324;28;20189;-46
2024/02/26 07:19:05;;;;;;;217.40;55.88;;;;;;;;;;4993373;28;20188;-45
2024/02/26 07:21:31;;;;;;;216.27;55.03;;;;;;;;;;4993396;28;20205;-46
2024/02/26 07:23:57;;;;;;;224.80;61.42;;;;;;;;;;4991222;28;20671;-48
2024/02/26 07:26:25;;;;;;;218.75;57.20;;;;;;;;;;4972958;28;20235;-46
2024/02/26 07:28:51;;;;;;;219.13;57.15;;;;;;;;;;4974512;28;20197;-45
2024/02/26 07:31:20;;;;;;;218.65;56.05;;;;;;;;;;4974102;28;20571;-45
2024/02/26 07:33:46;;;;;;;218.13;56.55;;;;;;;;;;4974612;28;20177;-47
2024/02/26 07:36:12;;;;;;;216.47;54.00;;;;;;;;;;4978503;28;20174;-46
2024/02/26 07:38:38;;;;;;;215.83;54.03;;;;;;;;;;4974185;28;20500;-45
2024/02/26 07:41:04;;;;;;;218.27;55.60;;;;;;;;;;4974056;28;20452;-46
2024/02/26 07:43:30;;;;;;;217.30;55.20;;;;;;;;;;4974044;28;20421;-46
2024/02/26 07:45:56;;;;;;;216.63;54.60;;;;;;;;;;4974143;28;20614;-45
2024/02/26 07:48:22;;;;;;;218.18;56.33;;;;;;;;;;4973849;28;20471;-46
2024/02/26 07:50:48;;;;;;;218.83;55.17;;;;;;;;;;4974189;28;20201;-46
2024/02/26 07:53:14;;;;;;;216.07;53.70;;;;;;;;;;4973875;28;20501;-46
2024/02/26 07:55:40;;;;;;;223.50;61.08;;;;;;;;;;4973741;28;20468;-46
2024/02/26 07:58:07;;;;;;;217.90;57.73;;;;;;;;;;4973933;28;20186;-46
2024/02/26 08:00:33;;;;;;;223.98;60.00;;;;;;;;;;4973243;28;20437;-46
2024/02/26 08:02:59;;;;;;;219.47;57.57;;;;;;;;;;4974112;28;20183;-45
2024/02/26 08:05:25;;;;;;;218.87;57.83;;;;;;;;;;4972624;28;20488;-46
2024/02/26 08:07:51;;;;;;;218.27;57.22;;;;;;;;;;4973596;28;20535;-46
2024/02/26 08:10:17;;;;;;;219.38;57.25;;;;;;;;;;4973742;28;20554;-46
2024/02/26 08:12:43;;;;;;;219.43;58.15;;;;;;;;;;4973613;28;20649;-46
2024/02/26 08:15:09;;;;;;;224.75;61.00;;;;;;;;;;4973204;28;20216;-46
2024/02/26 08:17:35;;;;;;;219.80;56.38;;;;;;;;;;4973705;28;20675;-46
2024/02/26 08:20:02;;;;;;;221.18;57.85;;;;;;;;;;4965894;28;20181;-46
2024/02/26 08:22:28;;;;;;;222.73;58.63;;;;;;;;;;4972176;28;20196;-46
2024/02/26 08:24:54;;;;;;;224.25;60.08;;;;;;;;;;4971651;28;20212;-46
2024/02/26 08:27:20;;;;;;;220.95;56.25;;;;;;;;;;4971421;28;20181;-46
2024/02/26 08:29:46;;;;;;;220.03;56.27;;;;;;;;;;4973548;28;20205;-46
2024/02/26 08:32:12;;;;;;;217.50;54.80;;;;;;;;;;4971990;28;20433;-45
2024/02/26 08:34:38;;;;;;;221.43;58.23;;;;;;;;;;4973439;28;20405;-45
2024/02/26 08:37:04;;;;;;;220.87;57.83;;;;;;;;;;4972933;28;20401;-46
2024/02/26 08:39:30;;;;;;;217.17;54.63;;;;;;;;;;4988028;28;20499;-46
2024/02/26 08:41:56;;;;;;;218.87;56.00;;;;;;;;;;5007084;23;20554;-46
2024/02/26 08:44:22;;;;;;;220.03;56.47;;;;;;;;;;4991968;28;20471;-46
2024/02/26 08:46:48;;;;;;;215.93;53.67;;;;;;;;;;4983436;28;20490;-47
2024/02/26 08:49:16;;;;;;;220.30;56.42;;;;;;;;;;4991754;28;20647;-47
2024/02/26 08:51:43;;;;;;;220.60;56.80;;;;;;;;;;4991566;28;20193;-46
2024/02/26 08:54:09;;;;;;;220.10;55.50;;;;;;;;;;4991814;28;20172;-47
2024/02/26 08:56:35;;;;;;;217.10;54.70;;;;;;;;;;4986975;28;20187;-46
2024/02/26 08:59:03;;;;;;;218.13;56.43;;;;;;;;;;4992234;28;20762;-48
2024/02/26 09:01:30;;;;;;;218.38;55.17;;;;;;;;;;4991672;28;20443;-47
2024/02/26 09:03:56;;;;;;;218.48;55.00;;;;;;;;;;4991865;28;20199;-47
2024/02/26 09:06:22;;;;;;;222.07;57.08;;;;;;;;;;4991277;28;20737;-47
2024/02/26 09:08:48;;;;;;;220.13;55.80;;;;;;;;;;4991695;28;20248;-47
2024/02/26 09:11:13;;;;;;;221.13;57.40;;;;;;;;;;4991699;28;20439;-46
2024/02/26 09:13:39;;;;;;;219.70;56.00;;;;;;;;;;4991816;28;20785;-48
2024/02/26 09:16:06;;;;;;;222.53;57.67;;;;;;;;;;4990999;28;20840;-46
2024/02/26 09:18:32;;;;;;;222.73;58.38;;;;;;;;;;4984873;28;20412;-46
2024/02/26 09:20:58;;;;;;;220.27;56.70;;;;;;;;;;4991201;28;20268;-46
2024/02/26 09:23:24;;;;;;;221.57;57.40;;;;;;;;;;4991625;28;20416;-48
2024/02/26 09:25:49;;;;;;;221.63;58.17;;;;;;;;;;4991399;28;20416;-47
2024/02/26 09:28:17;;;;;;;221.23;57.43;;;;;;;;;;4991790;28;20459;-49
2024/02/26 09:30:43;;;;;;;222.40;57.10;;;;;;;;;;4975402;28;20424;-46
2024/02/26 09:33:09;;;;;;;220.32;56.17;;;;;;;;;;4985205;28;20252;-47
2024/02/26 09:35:35;;;;;;;219.73;56.07;;;;;;;;;;4985757;28;20223;-47
2024/02/26 09:38:01;;;;;;;219.97;57.30;;;;;;;;;;4984198;28;20423;-47
2024/02/26 09:40:27;;;;;;;221.05;57.17;;;;;;;;;;4991827;28;20415;-48
2024/02/26 09:42:57;;;;;;;220.48;58.08;;;;;;;;;;4991742;28;20212;-47
2024/02/26 09:45:25;;;;;;;225.30;59.88;;;;;;;;;;4991525;28;20198;-47
2024/02/26 09:47:51;;;;;;;221.60;57.95;;;;;;;;;;4987653;28;20202;-48
2024/02/26 09:50:22;;;;;;;222.55;57.55;;;;;;;;;;4991064;28;20181;-48
2024/02/26 09:52:48;;;;;;;221.65;56.47;;;;;;;;;;4991627;28;20201;-48
2024/02/26 09:55:14;;;;;;;225.43;60.10;;;;;;;;;;4990543;28;20184;-47
2024/02/26 09:57:43;;;;;;;225.17;58.47;;;;;;;;;;4989645;28;20915;-47
2024/02/26 10:00:10;;;;;;;222.23;57.95;;;;;;;;;;4992407;28;20420;-47
2024/02/26 10:02:36;;;;;;;222.93;59.30;;;;;;;;;;4988158;28;20209;-46
2024/02/26 10:05:06;;;;;;;223.93;57.83;;;;;;;;;;4991649;28;20182;-46
2024/02/26 10:07:32;;;;;;;223.88;58.33;;;;;;;;;;4991771;28;20189;-47
2024/02/26 10:09:58;;;;;;;223.18;58.65;;;;;;;;;;4991832;28;20209;-47
2024/02/26 10:12:27;;;;;;;222.55;57.80;;;;;;;;;;4991511;28;20803;-47
2024/02/26 10:14:53;;;;;;;222.88;58.17;;;;;;;;;;4991660;28;20191;-47
2024/02/26 10:17:19;;;;;;;222.30;57.60;;;;;;;;;;4992073;28;20701;-47
2024/02/26 10:19:45;;;;;;;226.70;60.22;;;;;;;;;;4990892;28;20789;-46
2024/02/26 10:22:11;;;;;;;225.75;59.88;;;;;;;;;;4991540;28;20208;-47
2024/02/26 10:24:37;;;;;;;222.57;58.85;;;;;;;;;;4990734;28;20180;-47
2024/02/26 10:27:03;;;;;;;225.33;60.27;;;;;;;;;;4990802;28;20200;-47
2024/02/26 10:29:29;;;;;;;225.07;59.67;;;;;;;;;;4994186;28;20455;-48
2024/02/26 10:31:56;;;;;;;225.40;59.90;;;;;;;;;;4994837;28;20628;-48
2024/02/26 10:34:25;;;;;;;222.27;57.83;;;;;;;;;;4995448;28;20987;-47
2024/02/26 10:36:51;;;;;;;226.35;59.45;;;;;;;;;;4994391;28;20187;-48
2024/02/26 10:39:17;;;;;;;223.23;58.47;;;;;;;;;;4995112;28;20580;-48
2024/02/26 10:41:45;;;;;;;228.55;62.50;;;;;;;;;;4994490;28;20980;-47
2024/02/26 10:44:12;;;;;;;224.32;59.70;;;;;;;;;;4995301;28;20643;-48
2024/02/26 10:46:38;;;;;;;228.88;61.28;;;;;;;;;;4994914;28;20204;-46
2024/02/26 10:49:06;;;;;;;225.77;59.50;;;;;;;;;;4994935;28;20233;-46
2024/02/26 10:51:32;;;;;;;226.70;59.83;;;;;;;;;;4993540;28;20572;-48
2024/02/26 10:54:04;;;;;;;228.48;60.67;;;;;;;;;;4994929;28;20183;-48
2024/02/26 10:56:33;;;;;;;227.15;60.22;;;;;;;;;;4988350;28;20644;-47
2024/02/26 10:59:00;;;;;;;227.35;59.53;;;;;;;;;;4994316;28;20184;-47
2024/02/26 11:01:29;;;;;;;227.55;60.50;;;;;;;;;;4995088;28;20231;-48
2024/02/26 11:03:55;;;;;;;231.50;63.15;;;;;;;;;;4994122;28;20659;-48
2024/02/26 11:06:22;;;;;;;227.60;60.00;;;;;;;;;;4993620;28;20192;-47
2024/02/26 11:08:51;;;;;;;229.15;62.05;;;;;;;;;;4994440;28;20255;-47
2024/02/26 11:11:21;;;;;;;226.50;61.42;;;;;;;;;;4994924;28;20197;-47
2024/02/26 11:13:51;;;;;;;229.95;61.67;;;;;;;;;;4995288;28;20169;-47
2024/02/26 11:16:21;;;;;;;227.73;60.35;;;;;;;;;;4994666;28;20172;-47
2024/02/26 11:18:50;;;;;;;228.75;62.92;;;;;;;;;;4994322;28;20259;-46
2024/02/26 11:21:19;;;;;;;229.50;61.95;;;;;;;;;;4994470;28;20288;-47
2024/02/26 11:23:48;;;;;;;229.35;60.88;;;;;;;;;;4986535;28;20381;-47
2024/02/26 11:26:15;;;;;;;229.77;62.25;;;;;;;;;;4994439;28;20185;-47
2024/02/26 11:28:41;;;;;;;231.23;63.80;;;;;;;;;;4994379;28;20706;-48
2024/02/26 11:31:07;;;;;;;231.18;64.70;;;;;;;;;;4994749;28;20676;-48
2024/02/26 11:33:35;;;;;;;228.80;63.58;;;;;;;;;;4994687;28;20179;-48
2024/02/26 11:36:02;;;;;;;228.82;61.35;;;;;;;;;;4994316;28;20172;-47
2024/02/26 11:38:28;;;;;;;232.05;64.97;;;;;;;;;;4994188;28;20226;-47
2024/02/26 11:40:54;;;;;;;230.75;62.35;;;;;;;;;;4992983;28;20209;-47
2024/02/26 11:43:24;;;;;;;229.52;62.42;;;;;;;;;;4994687;28;20184;-48
2024/02/26 11:45:52;;;;;;;231.00;62.72;;;;;;;;;;4994073;28;20172;-48
2024/02/26 11:48:25;;;;;;;231.15;62.30;;;;;;;;;;4979127;28;20189;-47
2024/02/26 11:50:55;;;;;;;234.45;65.47;;;;;;;;;;4991315;28;20515;-47
2024/02/26 11:53:27;;;;;;;237.32;70.85;;;;;;;;;;4993001;28;20698;-46
2024/02/26 11:56:11;;;;;;;233.27;66.25;;;;;;;;;;4989267;28;20177;-48
2024/02/26 11:58:40;;;;;;;236.27;68.43;;;;;;;;;;4993122;28;20188;-46
2024/02/26 12:01:05;;;;;;;234.18;67.60;;;;;;;;;;4993792;28;20279;-46
2024/02/26 12:03:32;;;;;;;232.37;66.70;;;;;;;;;;4994464;28;20294;-48
2024/02/26 12:05:58;;;;;;;233.98;66.72;;;;;;;;;;4994037;28;20503;-49
2024/02/26 12:08:25;;;;;;;235.63;69.57;;;;;;;;;;4993855;28;20288;-49
2024/02/26 12:10:54;;;;;;;235.52;67.40;;;;;;;;;;4993858;28;20169;-47
2024/02/26 12:13:20;;;;;;;234.50;70.45;;;;;;;;;;4994355;28;20173;-48
2024/02/26 12:15:57;;;;;;;235.30;69.57;;;;;;;;;;4993678;28;20176;-49
2024/02/26 12:18:24;;;;;;;233.13;68.93;;;;;;;;;;4994197;28;20173;-47
2024/02/26 12:21:00;;;;;;;240.43;71.60;;;;;;;;;;4992304;28;20191;-46
2024/02/26 12:23:28;;;;;;;233.23;67.78;;;;;;;;;;4993514;28;20255;-48
2024/02/26 12:25:54;;;;;;;231.65;67.85;;;;;;;;;;4992994;28;20181;-47
2024/02/26 12:28:20;;;;;;;232.67;66.37;;;;;;;;;;4993663;28;20267;-48
2024/02/26 12:30:46;;;;;;;233.80;67.37;;;;;;;;;;4993312;28;20547;-48
2024/02/26 12:33:12;;;;;;;230.93;65.68;;;;;;;;;;4993651;28;20408;-47
2024/02/26 12:35:38;;;;;;;231.60;65.37;;;;;;;;;;4993772;28;20180;-47
2024/02/26 12:38:04;;;;;;;231.07;67.10;;;;;;;;;;4993175;28;20798;-45
2024/02/26 12:40:30;;;;;;;237.38;71.35;;;;;;;;;;4977072;28;20417;-47
2024/02/26 12:42:56;;;;;;;235.32;70.05;;;;;;;;;;4991458;28;20718;-46
2024/02/26 12:45:22;;;;;;;232.00;67.88;;;;;;;;;;4991690;28;20184;-46
2024/02/26 12:47:51;;;;;;;234.45;69.75;;;;;;;;;;4992939;28;20200;-48
2024/02/26 12:50:17;;;;;;;237.80;69.78;;;;;;;;;;4991837;28;20630;-47
2024/02/26 12:52:46;;;;;;;231.63;68.30;;;;;;;;;;4991910;28;20224;-47
2024/02/26 12:55:16;;;;;;;239.45;75.60;;;;;;;;;;4991232;28;20471;-47
2024/02/26 12:57:43;;;;;;;230.55;66.13;;;;;;;;;;4990787;28;20227;-47
2024/02/26 13:00:11;;;;;;;232.13;67.65;;;;;;;;;;4993808;28;20204;-47
2024/02/26 13:02:37;;;;;;;247.20;79.85;;;;;;;;;;4990072;28;20196;-48
2024/02/26 13:05:04;;;;;;;233.57;68.53;;;;;;;;;;4992798;28;20172;-47
2024/02/26 13:07:30;;;;;;;233.00;67.10;;;;;;;;;;4993151;28;20217;-48
2024/02/26 13:09:56;;;;;;;234.20;69.60;;;;;;;;;;4993313;28;20691;-47
2024/02/26 13:12:23;;;;;;;239.07;74.03;;;;;;;;;;4993122;28;20515;-47
2024/02/26 13:14:58;;;;;;;238.15;71.75;;;;;;;;;;4993010;28;20194;-47
2024/02/26 13:17:27;;;;;;;231.25;66.93;;;;;;;;;;4993141;28;20255;-47
2024/02/26 13:19:53;;;;;;;235.98;70.20;;;;;;;;;;4993092;28;20181;-47
2024/02/26 13:22:22;;;;;;;236.43;69.05;;;;;;;;;;4992997;28;20283;-47
2024/02/26 13:24:54;;;;;;;236.32;69.93;;;;;;;;;;4992383;28;20543;-48
2024/02/26 13:27:24;;;;;;;236.05;71.38;;;;;;;;;;4992625;28;20172;-47
2024/02/26 13:30:02;;;;;;;237.27;71.60;;;;;;;;;;4992690;28;20584;-47
2024/02/26 13:32:31;;;;;;;241.25;78.88;;;;;;;;;;4992840;28;20193;-46
2024/02/26 13:35:05;;;;;;;236.70;73.57;;;;;;;;;;4992777;28;20180;-49
2024/02/26 13:37:31;;;;;;;236.73;71.80;;;;;;;;;;4992748;28;20179;-49
2024/02/26 13:39:57;;;;;;;238.03;72.47;;;;;;;;;;4985106;28;20177;-48
2024/02/26 13:42:23;;;;;;;236.27;70.63;;;;;;;;;;4993094;28;20531;-48
2024/02/26 13:44:49;;;;;;;239.17;75.23;;;;;;;;;;4992926;28;20408;-48
2024/02/26 13:47:16;;;;;;;236.50;72.10;;;;;;;;;;4992735;28;20413;-49
2024/02/26 13:49:41;;;;;;;237.00;71.53;;;;;;;;;;4992513;28;20547;-48
2024/02/26 13:52:07;;;;;;;235.20;69.57;;;;;;;;;;4992759;28;20740;-47
2024/02/26 13:54:34;;;;;;;233.00;68.27;;;;;;;;;;4992963;28;20541;-48
2024/02/26 13:57:00;;;;;;;234.30;69.03;;;;;;;;;;4988316;28;20887;-48
2024/02/26 13:59:25;;;;;;;234.30;69.90;;;;;;;;;;4992716;28;20227;-49
2024/02/26 14:01:54;;;;;;;236.20;71.17;;;;;;;;;;4992566;28;21027;-48